Time;durP1;ratioP1;P1;durP2;ratioP2;P2;SDS_P1;SDS_P2;PMS_P1;PMS_P2;Temp;Humidity;BMP_temperature;BMP_pressure;BME280_temperature;BME280_humidity;BME280_pressure;Samples;Min_cycle;Max_cycle;Signal;HPM_P1;HPM_P2
2023/07/16 00:01:40;;;;;;;;;;;;;;;-144.99;100.00;52179.06;5050680;28;19936;-74
2023/07/16 00:04:07;;;;;;;;;;;;;;;-144.99;100.00;52189.25;5055777;28;19940;-73
2023/07/16 00:06:33;;;;;;;;;;;;;;;-144.99;100.00;52197.41;5057426;28;20617;-74
2023/07/16 00:09:00;;;;;;;;;;;;;;;-144.99;100.00;52221.84;5041557;28;19944;-73
2023/07/16 00:11:26;;;;;;;;;;;;;;;-144.99;100.00;52199.44;5036019;28;19938;-72
2023/07/16 00:13:53;;;;;;;;;;;;;;;-144.99;100.00;52223.88;5045374;28;19959;-72
2023/07/16 00:16:19;;;;;;;;;;;;;;;-144.99;100.00;52223.88;5025299;28;19957;-72
2023/07/16 00:18:47;;;;;;;;;;;;;;;-144.99;100.00;52174.97;5026970;28;19999;-72
2023/07/16 00:21:14;;;;;;;;;;;;;;;-144.99;100.00;52191.28;5031090;28;19936;-72
2023/07/16 00:23:41;;;;;;;;;;;;;;;-144.99;100.00;52195.34;5020726;28;19949;-73
2023/07/16 00:26:07;;;;;;;;;;;;;;;-144.99;100.00;52203.50;5022965;28;19936;-73
2023/07/16 00:28:34;;;;;;;;;;;;;;;-144.99;100.00;52189.25;5025168;28;19929;-72
2023/07/16 00:31:01;;;;;;;;;;;;;;;-144.99;100.00;52227.97;5026703;28;19933;-73
2023/07/16 00:33:28;;;;;;;;;;;;;;;-144.99;100.00;52219.81;5019676;28;19959;-73
2023/07/16 00:35:56;;;;;;;;;;;;;;;-144.99;100.00;52203.50;5023954;28;19933;-74
2023/07/16 00:38:22;;;;;;;;;;;;;;;-144.99;100.00;52215.75;5027011;28;19939;-73
2023/07/16 00:40:49;;;;;;;;;;;;;;;-144.99;100.00;52195.34;5019555;28;19951;-72
2023/07/16 00:43:16;;;;;;;;;;;;;;;-144.99;100.00;52207.59;5014031;28;19951;-71
2023/07/16 00:45:42;;;;;;;;;;;;;;;-144.99;100.00;52232.03;5023122;28;19951;-70
2023/07/16 00:48:09;;;;;;;;;;;;;;;-144.99;100.00;52203.50;5016247;28;19944;-72
2023/07/16 00:50:39;;;;;;;;;;;;;;;-144.99;100.00;52162.75;5025447;28;19948;-72
2023/07/16 00:53:07;;;;;;;;;;;;;;;-144.99;100.00;52199.44;5027280;28;19961;-72
2023/07/16 00:55:34;;;;;;;;;;;;;;;-144.99;100.00;52191.28;5025745;28;20453;-71
2023/07/16 00:58:02;;;;;;;;;;;;;;;-144.99;100.00;52209.63;5026945;28;19943;-73
2023/07/16 01:00:29;;;;;;;;;;;;;;;-144.99;100.00;52203.50;4683562;28;10000125;-73
2023/07/16 01:02:55;;;;;;;;;;;;;;;-144.99;100.00;52232.03;5027410;28;19943;-73
2023/07/16 01:05:25;;;;;;;;;;;;;;;-144.99;100.00;52215.75;5025314;28;19937;-73
2023/07/16 01:07:55;;;;;;;;;;;;;;;-144.99;100.00;52215.75;5026971;28;20591;-74
2023/07/16 01:10:23;;;;;;;;;;;;;;;-144.99;100.00;52191.28;5024868;28;19943;-76
2023/07/16 01:12:51;;;;;;;;;;;;;;;-144.99;100.00;52209.63;5032885;28;20043;-76
2023/07/16 01:15:18;;;;;;;;;;;;;;;-144.99;100.00;52230.00;5028589;28;19940;-75
2023/07/16 01:17:45;;;;;;;;;;;;;;;-144.99;100.00;52221.84;5033979;28;19973;-74
2023/07/16 01:20:11;;;;;;;;;;;;;;;-144.99;100.00;52195.34;5035531;28;19942;-77
2023/07/16 01:22:53;;;;;;;;;;;;;;;-144.99;100.00;52219.81;5033852;28;19944;-75
2023/07/16 01:25:34;;;;;;;;;;;;;;;-144.99;100.00;52221.84;5025444;28;19925;-75
2023/07/16 01:28:07;;;;;;;;;;;;;;;-144.99;100.00;52215.75;5035755;28;19953;-76
2023/07/16 01:30:38;;;;;;;;;;;;;;;-144.99;100.00;52260.56;5036645;28;20070;-76
2023/07/16 01:33:05;;;;;;;;;;;;;;;-144.99;100.00;52199.44;5029343;28;19940;-74
2023/07/16 01:35:31;;;;;;;;;;;;;;;-144.99;100.00;52211.66;5029283;28;19930;-75
2023/07/16 01:37:58;;;;;;;;;;;;;;;-144.99;100.00;52223.88;5031393;28;20389;-73
2023/07/16 01:40:24;;;;;;;;;;;;;;;-144.99;100.00;52215.75;5020324;28;19929;-74
2023/07/16 01:42:51;;;;;;;;;;;;;;;-144.99;100.00;52203.50;5023794;28;20408;-75
2023/07/16 01:45:17;;;;;;;;;;;;;;;-144.99;100.00;52187.19;5017385;28;20485;-78
2023/07/16 01:47:51;;;;;;;;;;;;;;;-144.99;100.00;52207.59;5018994;28;20111;-70
2023/07/16 01:50:18;;;;;;;;;;;;;;;-144.99;100.00;52199.44;5018004;28;19958;-76
2023/07/16 01:52:44;;;;;;;;;;;;;;;-144.99;100.00;52238.16;5027584;28;19967;-72
2023/07/16 01:55:11;;;;;;;;;;;;;;;-144.99;100.00;52199.44;5022484;28;19928;-74
2023/07/16 01:57:37;;;;;;;;;;;;;;;-144.99;100.00;52211.66;5027858;28;19960;-74
2023/07/16 02:00:04;;;;;;;;;;;;;;;-144.99;100.00;52223.88;5027260;28;19951;-74
2023/07/16 02:02:31;;;;;;;;;;;;;;;-144.99;100.00;52211.66;5025383;28;19948;-75
2023/07/16 02:04:59;;;;;;;;;;;;;;;-144.99;100.00;52191.28;5020217;28;19932;-75
2023/07/16 02:07:25;;;;;;;;;;;;;;;-144.99;100.00;52223.88;5021072;28;19929;-72
2023/07/16 02:09:52;;;;;;;;;;;;;;;-144.99;100.00;52236.13;5024396;28;19925;-76
2023/07/16 02:12:19;;;;;;;;;;;;;;;-144.99;100.00;52248.34;5030078;28;19962;-75
2023/07/16 02:14:45;;;;;;;;;;;;;;;-144.99;100.00;52205.53;5018164;28;19990;-74
2023/07/16 02:17:12;;;;;;;;;;;;;;;-144.99;100.00;52199.44;5024367;28;19955;-69
2023/07/16 02:19:38;;;;;;;;;;;;;;;-144.99;100.00;52268.72;4678246;28;10000594;-71
2023/07/16 02:22:06;;;;;;;;;;;;;;;-144.99;100.00;52191.28;5017915;28;19974;-71
2023/07/16 02:24:33;;;;;;;;;;;;;;;-144.99;100.00;52223.88;5021774;28;20046;-72
2023/07/16 02:27:00;;;;;;;;;;;;;;;-144.99;100.00;52174.97;5025125;28;19975;-73
2023/07/16 02:29:26;;;;;;;;;;;;;;;-144.99;100.00;52201.47;5026607;28;19966;-74
2023/07/16 02:31:53;;;;;;;;;;;;;;;-144.99;100.00;52232.03;5029258;28;20053;-76
2023/07/16 02:34:19;;;;;;;;;;;;;;;-144.99;100.00;52207.59;5042066;28;19948;-76
2023/07/16 02:36:46;;;;;;;;;;;;;;;-144.99;100.00;52219.81;5047894;28;19913;-74
2023/07/16 02:39:14;;;;;;;;;;;;;;;-144.99;100.00;52203.50;5051475;28;19936;-76
2023/07/16 02:41:40;;;;;;;;;;;;;;;-144.99;100.00;52260.56;5039319;28;19913;-76
2023/07/16 02:44:07;;;;;;;;;;;;;;;-144.99;100.00;52246.31;5048716;28;19970;-76
2023/07/16 02:46:34;;;;;;;;;;;;;;;-144.99;100.00;52197.41;5050300;28;19969;-77
2023/07/16 02:49:00;;;;;;;;;;;;;;;-144.99;100.00;52232.03;5049402;28;19944;-77
2023/07/16 02:51:27;;;;;;;;;;;;;;;-144.99;100.00;52276.88;5048711;28;19937;-76
2023/07/16 02:53:53;;;;;;;;;;;;;;;-144.99;100.00;52203.50;5040851;28;19944;-75
2023/07/16 02:56:21;;;;;;;;;;;;;;;-144.99;100.00;52236.13;5044702;28;19958;-77
2023/07/16 02:58:48;;;;;;;;;;;;;;;-144.99;100.00;52187.19;5040419;28;19962;-78
2023/07/16 03:01:15;;;;;;;;;;;;;;;-144.99;100.00;52227.97;5042714;28;19925;-78
2023/07/16 03:03:41;;;;;;;;;;;;;;;-144.99;100.00;52195.34;5046620;28;19931;-78
2023/07/16 03:06:08;;;;;;;;;;;;;;;-144.99;100.00;52217.78;5051585;28;19928;-79
2023/07/16 03:08:35;;;;;;;;;;;;;;;-144.99;100.00;52232.03;5041940;28;19917;-78
2023/07/16 03:11:01;;;;;;;;;;;;;;;-144.99;100.00;52207.59;5050038;28;19971;-78
2023/07/16 03:13:29;;;;;;;;;;;;;;;-144.99;100.00;52219.81;5051201;28;19991;-78
2023/07/16 03:15:56;;;;;;;;;;;;;;;-144.99;100.00;52203.50;5046960;28;19953;-77
2023/07/16 03:18:22;;;;;;;;;;;;;;;-144.99;100.00;52232.03;5049744;28;19958;-76
2023/07/16 03:20:49;;;;;;;;;;;;;;;-144.99;100.00;52248.34;5042406;28;19944;-77
2023/07/16 03:23:15;;;;;;;;;;;;;;;-144.99;100.00;52227.97;5047498;28;19935;-76
2023/07/16 03:25:42;;;;;;;;;;;;;;;-144.99;100.00;52215.75;5046758;28;19963;-78
2023/07/16 03:28:08;;;;;;;;;;;;;;;-144.99;100.00;52225.94;5055454;28;19944;-79
2023/07/16 03:30:37;;;;;;;;;;;;;;;-144.99;100.00;52211.66;5055600;28;19935;-78
2023/07/16 03:33:03;;;;;;;;;;;;;;;-144.99;100.00;52238.16;5053725;28;19932;-77
2023/07/16 03:35:31;;;;;;;;;;;;;;;-144.99;100.00;52219.81;5052770;28;20010;-77
2023/07/16 03:37:58;;;;;;;;;;;;;;;-144.99;100.00;52227.97;5051583;28;19974;-77
2023/07/16 03:40:25;;;;;;;;;;;;;;;-144.99;100.00;52256.50;5052621;28;19962;-78
2023/07/16 03:42:52;;;;;;;;;;;;;;;-144.99;100.00;52238.16;5045920;28;19988;-77
2023/07/16 03:45:19;;;;;;;;;;;;;;;-144.99;100.00;52248.34;5044332;28;19943;-79
2023/07/16 03:47:47;;;;;;;;;;;;;;;-144.99;100.00;52225.94;5054386;28;19948;-76
2023/07/16 03:50:13;;;;;;;;;;;;;;;-144.99;100.00;52252.44;5052041;28;19939;-78
2023/07/16 03:52:40;;;;;;;;;;;;;;;-144.99;100.00;52244.28;5049828;28;19929;-78
2023/07/16 03:55:07;;;;;;;;;;;;;;;-144.99;100.00;52248.34;5042560;28;19984;-79
2023/07/16 03:57:34;;;;;;;;;;;;;;;-144.99;100.00;52268.72;5049717;28;19944;-77
2023/07/16 04:00:00;;;;;;;;;;;;;;;-144.99;100.00;52221.84;5039828;28;19925;-77
2023/07/16 04:02:27;;;;;;;;;;;;;;;-144.99;100.00;52240.19;5046603;28;19932;-77
2023/07/16 04:04:55;;;;;;;;;;;;;;;-144.99;100.00;52203.50;5048530;28;20015;-77
2023/07/16 04:07:22;;;;;;;;;;;;;;;-144.99;100.00;52248.34;5039602;28;19959;-77
2023/07/16 04:09:48;;;;;;;;;;;;;;;-144.99;100.00;52236.13;5048550;28;19938;-76
2023/07/16 04:12:15;;;;;;;;;;;;;;;-144.99;100.00;52201.47;5043701;28;19962;-77
2023/07/16 04:14:41;;;;;;;;;;;;;;;-144.99;100.00;52232.03;5042374;28;19974;-79
2023/07/16 04:17:08;;;;;;;;;;;;;;;-144.99;100.00;52242.22;5040948;28;19967;-78
2023/07/16 04:19:35;;;;;;;;;;;;;;;-144.99;100.00;52207.59;5037844;28;19960;-76
2023/07/16 04:22:03;;;;;;;;;;;;;;;-144.99;100.00;52262.63;5028620;28;20017;-76
2023/07/16 04:24:29;;;;;;;;;;;;;;;-144.99;100.00;52203.50;5027611;28;19945;-76
2023/07/16 04:26:56;;;;;;;;;;;;;;;-144.99;100.00;52219.81;5024468;28;19988;-75
2023/07/16 04:29:22;;;;;;;;;;;;;;;-144.99;100.00;52199.44;5037808;28;19943;-73
2023/07/16 04:31:49;;;;;;;;;;;;;;;-144.99;100.00;52264.66;5035216;28;19944;-73
2023/07/16 04:34:15;;;;;;;;;;;;;;;-144.99;100.00;52244.28;5034632;28;19966;-76
2023/07/16 04:36:43;;;;;;;;;;;;;;;-144.99;100.00;52201.47;5028629;28;19961;-74
2023/07/16 04:39:11;;;;;;;;;;;;;;;-144.99;100.00;52252.44;5043084;28;19944;-77
2023/07/16 04:41:37;;;;;;;;;;;;;;;-144.99;100.00;52252.44;5032442;28;19985;-77
2023/07/16 04:44:04;;;;;;;;;;;;;;;-144.99;100.00;52252.44;5039227;28;20149;-76
2023/07/16 04:46:31;;;;;;;;;;;;;;;-144.99;100.00;52264.66;5047961;28;19959;-77
2023/07/16 04:48:57;;;;;;;;;;;;;;;-144.99;100.00;52242.22;5045716;28;19956;-77
2023/07/16 04:51:24;;;;;;;;;;;;;;;-144.99;100.00;52272.81;5036686;28;19961;-75
2023/07/16 04:53:50;;;;;;;;;;;;;;;-144.99;100.00;52203.50;5041361;28;19949;-75
2023/07/16 04:56:18;;;;;;;;;;;;;;;-144.99;100.00;52221.84;5037455;28;19956;-76
2023/07/16 04:58:45;;;;;;;;;;;;;;;-144.99;100.00;52203.50;5037695;28;19980;-76
2023/07/16 05:01:12;;;;;;;;;;;;;;;-144.99;100.00;52240.19;5041066;28;19968;-77
2023/07/16 05:03:38;;;;;;;;;;;;;;;-144.99;100.00;52232.03;5041321;28;19925;-77
2023/07/16 05:06:06;;;;;;;;;;;;;;;-144.99;100.00;52248.34;5039658;28;19982;-76
2023/07/16 05:08:33;;;;;;;;;;;;;;;-144.99;100.00;52256.50;5039061;28;19943;-76
2023/07/16 05:11:00;;;;;;;;;;;;;;;-144.99;100.00;52252.44;5044606;28;20327;-76
2023/07/16 05:13:28;;;;;;;;;;;;;;;-144.99;100.00;52217.78;5037519;28;19936;-77
2023/07/16 05:15:54;;;;;;;;;;;;;;;-144.99;100.00;52189.25;5035770;28;19972;-76
2023/07/16 05:18:22;;;;;;;;;;;;;;;-144.99;100.00;52223.88;5039358;28;20042;-76
2023/07/16 05:20:48;;;;;;;;;;;;;;;-144.99;100.00;52219.81;5039327;28;20023;-76
2023/07/16 05:23:15;;;;;;;;;;;;;;;-144.99;100.00;52217.78;5040533;28;20613;-77
2023/07/16 05:25:46;;;;;;;;;;;;;;;-144.99;100.00;52191.28;5043941;28;19982;-76
2023/07/16 05:28:13;;;;;;;;;;;;;;;-144.99;100.00;52219.81;5030972;28;19944;-77
2023/07/16 05:30:41;;;;;;;;;;;;;;;-144.99;100.00;52244.28;5029909;28;19946;-76
2023/07/16 05:33:07;;;;;;;;;;;;;;;-144.99;100.00;52179.06;5027315;28;19959;-77
2023/07/16 05:35:34;;;;;;;;;;;;;;;-144.99;100.00;52207.59;5029456;28;19925;-75
2023/07/16 05:38:00;;;;;;;;;;;;;;;-144.99;100.00;52187.19;5036702;28;19953;-77
2023/07/16 05:40:27;;;;;;;;;;;;;;;-144.99;100.00;52240.19;5038295;28;19963;-78
2023/07/16 05:42:54;;;;;;;;;;;;;;;-144.99;100.00;52187.19;5037407;28;20409;-78
2023/07/16 05:45:20;;;;;;;;;;;;;;;-144.99;100.00;52174.97;5022527;28;20353;-77
2023/07/16 05:47:48;;;;;;;;;;;;;;;-144.99;100.00;52215.75;5020118;28;19963;-75
2023/07/16 05:50:15;;;;;;;;;;;;;;;-144.99;100.00;52217.78;5025047;28;20262;-78
2023/07/16 05:52:41;;;;;;;;;;;;;;;-144.99;99.20;52219.81;5027517;28;19964;-79
2023/07/16 05:55:08;;;;;;;;;;;;;;;-144.99;98.40;52240.19;5024613;28;19955;-78
2023/07/16 05:57:35;;;;;;;;;;;;;;;-144.99;98.27;52232.03;5021107;28;19929;-78
2023/07/16 06:00:04;;;;;;;;;;;;;;;-144.99;97.25;52215.75;5018785;28;19947;-80
2023/07/16 06:02:31;;;;;;;;;;;;;;;-144.99;98.00;52201.47;5026445;28;20022;-78
2023/07/16 06:04:59;;;;;;;;;;;;;;;-144.99;96.85;52244.28;5028212;28;19937;-78
2023/07/16 06:07:26;;;;;;;;;;;;;;;-144.99;96.59;52232.03;5021359;28;20353;-79
2023/07/16 06:09:52;;;;;;;;;;;;;;;-144.99;96.03;52223.88;5026473;28;20416;-78
2023/07/16 06:12:20;;;;;;;;;;;;;;;-144.99;94.89;52191.28;5020854;28;19929;-79
2023/07/16 06:14:46;;;;;;;;;;;;;;;-144.99;94.56;52221.84;5020902;28;19959;-77
2023/07/16 06:17:13;;;;;;;;;;;;;;;-144.99;93.06;52221.84;5025866;28;19962;-79
2023/07/16 06:19:39;;;;;;;;;;;;;;;-144.99;91.60;52215.75;5017213;28;20007;-79
2023/07/16 06:22:08;;;;;;;;;;;;;;;-144.99;90.53;52195.34;5023999;28;19972;-77
2023/07/16 06:24:35;;;;;;;;;;;;;;;-144.99;89.92;52217.78;5017709;28;19979;-76
2023/07/16 06:27:02;;;;;;;;;;;;;;;-144.99;89.16;52219.81;5024510;28;19955;-77
2023/07/16 06:29:28;;;;;;;;;;;;;;;-144.99;87.71;52248.34;5028694;28;20438;-78
2023/07/16 06:31:56;;;;;;;;;;;;;;;-144.99;88.14;52211.66;5028863;28;19936;-78
2023/07/16 06:34:23;;;;;;;;;;;;;;;-144.99;87.04;52203.50;5021443;28;20345;-78
2023/07/16 06:36:49;;;;;;;;;;;;;;;-144.99;86.41;52199.44;5023020;28;19936;-78
2023/07/16 06:39:17;;;;;;;;;;;;;;;-144.99;87.11;52166.81;5037918;28;19959;-78
2023/07/16 06:41:44;;;;;;;;;;;;;;;-144.99;86.49;52195.34;5019529;28;19967;-77
2023/07/16 06:44:10;;;;;;;;;;;;;;;-144.99;84.17;52207.59;5023865;28;19970;-78
2023/07/16 06:46:37;;;;;;;;;;;;;;;-144.99;84.56;52195.34;5026355;28;19925;-76
2023/07/16 06:49:04;;;;;;;;;;;;;;;-144.99;82.21;52189.25;5029853;28;19976;-77
2023/07/16 06:51:32;;;;;;;;;;;;;;;-144.99;82.94;52195.34;5026304;28;19941;-77
2023/07/16 06:53:58;;;;;;;;;;;;;;;-144.99;81.61;52207.59;5027913;28;20077;-77
2023/07/16 06:56:26;;;;;;;;;;;;;;;-144.99;81.87;52199.44;5025219;28;20058;-76
2023/07/16 06:58:53;;;;;;;;;;;;;;;-144.99;81.54;52207.59;5029435;28;19948;-76
2023/07/16 07:01:19;;;;;;;;;;;;;;;-144.99;81.65;52217.78;5031020;28;19929;-76
2023/07/16 07:03:46;;;;;;;;;;;;;;;-144.99;81.10;52187.19;5030871;28;20334;-75
2023/07/16 07:06:12;;;;;;;;;;;;;;;-144.99;80.45;52215.75;5021431;28;19972;-79
2023/07/16 07:08:39;;;;;;;;;;;;;;;-144.99;80.36;52170.91;5026319;28;20460;-77
2023/07/16 07:11:06;;;;;;;;;;;;;;;-144.99;79.60;52227.97;5027197;28;20392;-77
2023/07/16 07:13:34;;;;;;;;;;;;;;;-144.99;78.56;52219.81;5024167;28;19929;-79
2023/07/16 07:16:03;;;;;;;;;;;;;;;-144.99;78.82;52215.75;5022809;28;19929;-76
2023/07/16 07:18:29;;;;;;;;;;;;;;;-144.99;78.43;52207.59;5027378;28;19978;-78
2023/07/16 07:20:56;;;;;;;;;;;;;;;-144.99;79.72;52223.88;5027877;28;19963;-78
2023/07/16 07:23:22;;;;;;;;;;;;;;;-144.99;79.22;52183.13;5032374;28;20062;-78
2023/07/16 07:25:50;;;;;;;;;;;;;;;-144.99;79.49;52203.50;5028985;28;20468;-74
2023/07/16 07:28:17;;;;;;;;;;;;;;;-144.99;79.99;52201.47;5020582;28;20000;-76
2023/07/16 07:30:45;;;;;;;;;;;;;;;-144.99;80.08;52195.34;5027810;28;19946;-76
2023/07/16 07:33:12;;;;;;;;;;;;;;;-144.99;78.65;52207.59;5021903;28;19952;-74
2023/07/16 07:35:38;;;;;;;;;;;;;;;-144.99;77.90;52185.16;5020238;28;19980;-74
2023/07/16 07:38:05;;;;;;;;;;;;;;;-144.99;78.64;52227.97;5029501;28;19925;-75
2023/07/16 07:40:32;;;;;;;;;;;;;;;-144.99;79.08;52215.75;5023396;28;20183;-75
2023/07/16 07:42:58;;;;;;;;;;;;;;;-144.99;78.13;52195.34;5023329;28;19979;-75
2023/07/16 07:45:25;;;;;;;;;;;;;;;-144.99;77.87;52189.25;5021348;28;20024;-77
2023/07/16 07:47:53;;;;;;;;;;;;;;;-144.99;79.01;52183.13;5031040;28;20396;-76
2023/07/16 07:50:19;;;;;;;;;;;;;;;-144.99;78.54;52177.00;5029821;28;19970;-77
2023/07/16 07:52:46;;;;;;;;;;;;;;;-144.99;79.09;52193.31;5025241;28;20532;-76
2023/07/16 07:55:13;;;;;;;;;;;;;;;-144.99;76.45;52219.81;5019643;28;20014;-77
2023/07/16 07:57:39;;;;;;;;;;;;;;;-144.99;76.12;52183.13;5025718;28;19955;-78
2023/07/16 08:00:11;;;;;;;;;;;;;;;-144.99;75.56;52191.28;5025180;28;19945;-77
2023/07/16 08:02:37;;;;;;;;;;;;;;;-144.99;76.31;52162.75;5027562;28;20344;-78
2023/07/16 08:05:06;;;;;;;;;;;;;;;-144.99;76.99;52195.34;5027437;28;20521;-77
2023/07/16 08:07:33;;;;;;;;;;;;;;;-144.99;77.07;52187.19;5021139;28;20311;-75
2023/07/16 08:09:59;;;;;;;;;;;;;;;-144.99;74.73;52223.88;5025454;28;20335;-76
2023/07/16 08:12:26;;;;;;;;;;;;;;;-144.99;73.73;52213.69;5030460;28;19929;-77
2023/07/16 08:14:52;;;;;;;;;;;;;;;-144.99;75.29;52172.94;5021288;28;19929;-77
2023/07/16 08:17:19;;;;;;;;;;;;;;;-144.99;75.07;52150.53;5018435;28;20025;-77
2023/07/16 08:19:46;;;;;;;;;;;;;;;-144.99;73.62;52179.06;5019404;28;19933;-78
2023/07/16 08:22:14;;;;;;;;;;;;;;;-144.99;73.22;52146.44;5029672;28;19929;-77
2023/07/16 08:24:40;;;;;;;;;;;;;;;-144.99;72.63;52170.91;5024428;28;19925;-77
2023/07/16 08:27:07;;;;;;;;;;;;;;;-144.99;73.25;52183.13;5023987;28;19926;-76
2023/07/16 08:29:36;;;;;;;;;;;;;;;-144.99;74.33;52199.44;5019023;28;20458;-77
2023/07/16 08:32:03;;;;;;;;;;;;;;;-144.99;74.00;52199.44;5024606;28;19955;-77
2023/07/16 08:34:29;;;;;;;;;;;;;;;-144.99;73.25;52172.94;5042219;28;19940;-76
2023/07/16 08:36:56;;;;;;;;;;;;;;;-144.99;73.30;52172.94;5046933;28;19969;-78
2023/07/16 08:39:24;;;;;;;;;;;;;;;-144.99;72.20;52174.97;5042551;28;19990;-78
2023/07/16 08:41:51;;;;;;;;;;;;;;;-144.99;72.83;52193.31;5044428;28;19952;-77
2023/07/16 08:44:18;;;;;;;;;;;;;;;-144.99;71.55;52154.59;5032160;28;20249;-76
2023/07/16 08:46:45;;;;;;;;;;;;;;;-144.99;70.71;52142.38;5017833;28;19945;-75
2023/07/16 08:49:12;;;;;;;;;;;;;;;-144.99;71.49;52146.44;5027753;28;19935;-78
2023/07/16 08:51:38;;;;;;;;;;;;;;;-144.99;71.91;52219.81;5027736;28;19925;-77
2023/07/16 08:54:05;;;;;;;;;;;;;;;-144.99;72.79;52191.28;5029382;28;19983;-77
2023/07/16 08:56:33;;;;;;;;;;;;;;;-144.99;72.74;52205.53;5028724;28;19925;-78
2023/07/16 08:59:00;;;;;;;;;;;;;;;-144.99;71.44;52166.81;5027339;28;20030;-76
2023/07/16 09:01:27;;;;;;;;;;;;;;;-144.99;71.39;52154.59;5027457;28;19939;-76
2023/07/16 09:03:54;;;;;;;;;;;;;;;-144.99;72.72;52158.66;5029777;28;19933;-75
2023/07/16 09:06:21;;;;;;;;;;;;;;;-144.99;72.90;52152.56;5022611;28;19925;-77
2023/07/16 09:08:48;;;;;;;;;;;;;;;-144.99;73.06;52146.44;5028039;28;19925;-76
2023/07/16 09:11:16;;;;;;;;;;;;;;;-144.99;72.93;52187.19;5026448;28;19936;-77
2023/07/16 09:13:46;;;;;;;;;;;;;;;-144.99;72.14;52158.66;5024538;28;19994;-76
2023/07/16 09:16:13;;;;;;;;;;;;;;;-144.99;72.21;52174.97;5022105;28;19955;-76
2023/07/16 09:18:40;;;;;;;;;;;;;;;-144.99;71.52;52146.44;5023179;28;20420;-74
2023/07/16 09:21:07;;;;;;;;;;;;;;;-144.99;70.60;52185.16;5029124;28;19925;-78
2023/07/16 09:23:34;;;;;;;;;;;;;;;-144.99;70.59;52150.53;5029151;28;19929;-78
2023/07/16 09:26:03;;;;;;;;;;;;;;;-144.99;71.45;52177.00;5022668;28;19973;-78
2023/07/16 09:28:31;;;;;;;;;;;;;;;-144.99;70.93;52207.59;5022917;28;19967;-78
2023/07/16 09:31:04;;;;;;;;;;;;;;;-144.99;71.01;52191.28;5028795;28;19960;-78
2023/07/16 09:33:32;;;;;;;;;;;;;;;-144.99;71.07;52195.34;5022365;28;19925;-78
2023/07/16 09:35:59;;;;;;;;;;;;;;;-144.99;70.63;52211.66;5020546;28;19997;-78
2023/07/16 09:38:25;;;;;;;;;;;;;;;-144.99;70.65;52174.97;5027314;28;20423;-77
2023/07/16 09:40:52;;;;;;;;;;;;;;;-144.99;70.17;52174.97;5018705;28;20483;-76
2023/07/16 09:43:20;;;;;;;;;;;;;;;-144.99;69.03;52174.97;5022655;28;20375;-77
2023/07/16 09:45:47;;;;;;;;;;;;;;;-144.99;69.66;52154.59;5022122;28;20048;-77
2023/07/16 09:48:15;;;;;;;;;;;;;;;-144.99;69.91;52138.28;5027160;28;19941;-75
2023/07/16 09:50:47;;;;;;;;;;;;;;;-144.99;69.29;52142.38;5024383;28;20379;-78
2023/07/16 09:53:13;;;;;;;;;;;;;;;-144.99;68.64;52113.84;5029569;28;19929;-77
2023/07/16 09:55:40;;;;;;;;;;;;;;;-144.99;68.81;52138.28;5013669;28;19941;-78
2023/07/16 09:58:09;;;;;;;;;;;;;;;-144.99;68.91;52191.28;5024630;28;19948;-78
2023/07/16 10:00:37;;;;;;;;;;;;;;;-144.99;68.64;52174.97;5019166;28;20377;-77
2023/07/16 10:03:03;;;;;;;;;;;;;;;-144.99;69.03;52146.44;5020865;28;19960;-76
2023/07/16 10:05:31;;;;;;;;;;;;;;;-144.99;69.04;52146.44;5018076;28;19948;-76
2023/07/16 10:07:59;;;;;;;;;;;;;;;-144.99;69.13;52156.63;5026494;28;20363;-80
2023/07/16 10:10:26;;;;;;;;;;;;;;;-144.99;68.94;52181.09;5021217;28;20376;-80
2023/07/16 10:12:57;;;;;;;;;;;;;;;-144.99;69.14;52183.13;5020838;28;19941;-80
2023/07/16 10:15:26;;;;;;;;;;;;;;;-144.99;69.50;52187.19;5025038;28;20001;-77
2023/07/16 10:17:52;;;;;;;;;;;;;;;-144.99;69.37;52174.97;5024281;28;19985;-78
2023/07/16 10:20:29;;;;;;;;;;;;;;;-144.99;69.25;52158.66;5023883;28;19936;-79
2023/07/16 10:22:57;;;;;;;;;;;;;;;-144.99;69.25;52174.97;5025372;28;20562;-77
2023/07/16 10:25:24;;;;;;;;;;;;;;;-144.99;68.88;52177.00;5023722;28;19961;-77
2023/07/16 10:27:51;;;;;;;;;;;;;;;-144.99;68.82;52166.81;5023751;28;19976;-77
2023/07/16 10:30:18;;;;;;;;;;;;;;;-144.99;68.40;52146.44;5023519;28;19951;-77
2023/07/16 10:32:45;;;;;;;;;;;;;;;-144.99;68.03;52170.91;5027520;28;20048;-76
2023/07/16 10:35:12;;;;;;;;;;;;;;;-144.99;68.39;52183.13;5029660;28;19964;-79
2023/07/16 10:37:40;;;;;;;;;;;;;;;-144.99;68.10;52148.47;5030976;28;19925;-78
2023/07/16 10:40:11;;;;;;;;;;;;;;;-144.99;68.40;52154.59;5022437;28;19948;-79
2023/07/16 10:42:38;;;;;;;;;;;;;;;-144.99;67.88;52158.66;5026378;28;20039;-77
2023/07/16 10:45:05;;;;;;;;;;;;;;;-144.99;68.23;52105.69;5030157;28;19929;-82
2023/07/16 10:47:34;;;;;;;;;;;;;;;-144.99;68.00;52170.91;5027577;28;19963;-75
2023/07/16 10:50:01;;;;;;;;;;;;;;;-144.99;68.05;52150.53;5022315;28;19950;-77
2023/07/16 10:52:28;;;;;;;;;;;;;;;-144.99;67.57;52077.16;5026137;28;19955;-77
2023/07/16 10:54:55;;;;;;;;;;;;;;;-144.99;66.60;52130.13;5029639;28;20269;-77
2023/07/16 10:57:23;;;;;;;;;;;;;;;-144.99;65.88;52126.06;5027834;28;20029;-76
2023/07/16 10:59:51;;;;;;;;;;;;;;;-144.99;65.92;52177.00;5024772;28;20010;-76
2023/07/16 11:02:18;;;;;;;;;;;;;;;-144.99;66.61;52095.50;5027325;28;19963;-77
2023/07/16 11:04:45;;;;;;;;;;;;;;;-144.99;66.05;52134.22;5029159;28;19963;-78
2023/07/16 11:07:12;;;;;;;;;;;;;;;-144.99;66.23;52166.81;5024678;28;19929;-79
2023/07/16 11:09:42;;;;;;;;;;;;;;;-144.99;66.09;52121.97;5025794;28;20392;-77
2023/07/16 11:12:10;;;;;;;;;;;;;;;-144.99;64.64;52101.59;5027173;28;19986;-76
2023/07/16 11:14:38;;;;;;;;;;;;;;;-144.99;65.61;52195.34;5030191;28;20314;-75
2023/07/16 11:17:06;;;;;;;;;;;;;;;-144.99;65.55;52168.84;5024103;28;19971;-76
2023/07/16 11:19:33;;;;;;;;;;;;;;;-144.99;65.91;52156.63;5029755;28;19988;-76
2023/07/16 11:22:00;;;;;;;;;;;;;;;-144.99;65.73;52040.47;5031328;28;19960;-76
2023/07/16 11:24:27;;;;;;;;;;;;;;;-144.99;66.03;52142.38;5032833;28;19929;-77
2023/07/16 11:26:54;;;;;;;;;;;;;;;-144.99;65.46;52052.69;5029137;28;19985;-76
2023/07/16 11:29:21;;;;;;;;;;;;;;;-144.99;64.51;52138.28;5025850;28;19947;-75
2023/07/16 11:31:51;;;;;;;;;;;;;;;-144.99;65.00;52073.06;5023712;28;19985;-76
2023/07/16 11:34:18;;;;;;;;;;;;;;;-144.99;64.68;52069.00;5023684;28;20078;-76
2023/07/16 11:36:44;;;;;;;;;;;;;;;-144.99;64.87;52170.91;5024944;28;19967;-76
2023/07/16 11:39:11;;;;;;;;;;;;;;;-144.99;65.34;52158.66;5021682;28;19933;-77
2023/07/16 11:41:38;;;;;;;;;;;;;;;-144.99;65.43;52117.91;5020260;28;19963;-76
2023/07/16 11:44:07;;;;;;;;;;;;;;;-144.99;64.89;52172.94;5029710;28;19979;-76
2023/07/16 11:46:35;;;;;;;;;;;;;;;-144.99;64.87;52152.56;5028984;28;20400;-76
2023/07/16 11:49:03;;;;;;;;;;;;;;;-144.99;65.46;52146.44;5018850;28;19945;-76
2023/07/16 11:51:30;;;;;;;;;;;;;;;-144.99;65.86;52160.72;5019766;28;19949;-76
2023/07/16 11:53:57;;;;;;;;;;;;;;;-144.99;66.16;52174.97;5019716;28;19926;-76
2023/07/16 11:56:24;;;;;;;;;;;;;;;-144.99;66.02;52179.06;5026747;28;20024;-74
2023/07/16 11:58:50;;;;;;;;;;;;;;;-144.99;65.77;52166.81;5023498;28;19948;-75
2023/07/16 12:01:17;;;;;;;;;;;;;;;-144.99;65.66;52140.31;5023298;28;19944;-76
2023/07/16 12:03:44;;;;;;;;;;;;;;;-144.99;65.16;52140.31;5019506;28;19944;-72
2023/07/16 12:06:12;;;;;;;;;;;;;;;-144.99;65.05;52105.69;5015075;28;19956;-74
2023/07/16 12:08:38;;;;;;;;;;;;;;;-144.99;65.46;52130.13;5014767;28;19941;-77
2023/07/16 12:11:05;;;;;;;;;;;;;;;-144.99;65.71;52109.75;5016255;28;19970;-74
2023/07/16 12:13:31;;;;;;;;;;;;;;;-144.99;65.44;52132.19;5018326;28;19929;-76
2023/07/16 12:15:58;;;;;;;;;;;;;;;-144.99;65.73;52154.59;5021975;28;19933;-76
2023/07/16 12:18:24;;;;;;;;;;;;;;;-144.99;65.86;52183.13;5021657;28;19937;-75
2023/07/16 12:20:51;;;;;;;;;;;;;;;-144.99;65.96;52183.13;5027514;28;20728;-74
2023/07/16 12:23:19;;;;;;;;;;;;;;;-144.99;66.41;52150.53;5028736;28;20355;-76